createdAt,value
2023-05-14T00:00:18.065Z,97675.78
2023-05-14T00:03:06.137Z,97672.64
2023-05-14T00:05:34.410Z,97671.48
2023-05-14T00:08:02.232Z,97671.33
2023-05-14T00:10:30.047Z,97667.02
2023-05-14T00:12:57.868Z,97669.66
2023-05-14T00:15:25.691Z,97670.99
2023-05-14T00:17:53.734Z,97675.90
2023-05-14T00:20:21.846Z,97678.52
2023-05-14T00:22:50.033Z,97670.89
2023-05-14T00:25:17.890Z,97668.24
2023-05-14T00:27:45.867Z,97665.59
2023-05-14T00:30:13.911Z,97667.40
2023-05-14T00:32:41.913Z,97666.02
2023-05-14T00:35:09.993Z,97663.95
2023-05-14T00:37:37.970Z,97660.23
2023-05-14T00:40:07.275Z,97662.31
2023-05-14T00:42:35.259Z,97664.94
2023-05-14T00:45:03.423Z,97667.64
2023-05-14T00:47:31.844Z,97666.46
2023-05-14T00:49:59.752Z,97663.45
2023-05-14T00:52:27.695Z,97666.33
2023-05-14T00:54:57.076Z,97660.95
2023-05-14T00:57:25.027Z,97659.20
2023-05-14T00:59:53.116Z,97662.27
2023-05-14T01:02:21.248Z,97664.46
2023-05-14T01:04:49.778Z,97663.55
2023-05-14T01:07:30.090Z,97661.67
2023-05-14T01:10:01.697Z,97662.19
2023-05-14T01:12:38.953Z,97661.36
2023-05-14T01:15:11.721Z,97658.12
2023-05-14T01:17:43.265Z,97657.07
2023-05-14T01:20:11.731Z,97655.95
2023-05-14T01:22:39.677Z,97654.68
2023-05-14T01:25:07.967Z,97654.56
2023-05-14T01:27:38.681Z,97656.73
2023-05-14T01:30:09.946Z,97658.00
2023-05-14T01:32:39.447Z,97655.36
2023-05-14T01:35:08.350Z,97653.23
2023-05-14T01:37:36.928Z,97655.24
2023-05-14T01:40:09.916Z,97654.84
2023-05-14T01:42:38.548Z,97652.63
2023-05-14T01:45:06.716Z,97654.06
2023-05-14T01:47:34.602Z,97651.80
2023-05-14T01:50:02.539Z,97654.19
2023-05-14T01:52:30.500Z,97647.67
2023-05-14T01:55:00.001Z,97649.45
2023-05-14T01:57:28.000Z,97653.06
2023-05-14T01:59:55.919Z,97646.97
2023-05-14T02:02:23.759Z,97646.09
2023-05-14T02:04:52.058Z,97644.07
2023-05-14T02:07:20.306Z,97652.62
2023-05-14T02:09:48.294Z,97648.45
2023-05-14T02:12:16.057Z,97648.57
2023-05-14T02:14:44.118Z,97645.97
2023-05-14T02:17:15.972Z,97648.36
2023-05-14T02:19:47.120Z,97644.52
2023-05-14T02:22:14.900Z,97640.02
2023-05-14T02:24:42.864Z,97639.65
2023-05-14T02:27:13.000Z,97637.38
2023-05-14T02:29:40.969Z,97637.30
2023-05-14T02:32:09.026Z,97636.85
2023-05-14T02:34:37.025Z,97634.41
2023-05-14T02:37:05.093Z,97636.08
2023-05-14T02:39:32.991Z,97632.91
2023-05-14T02:42:01.252Z,97633.67
2023-05-14T02:44:29.229Z,97636.35
2023-05-14T02:46:57.027Z,97637.33
2023-05-14T02:49:25.188Z,97638.11
2023-05-14T02:51:54.588Z,97633.77
2023-05-14T02:54:22.514Z,97631.19
2023-05-14T02:56:50.836Z,97638.88
2023-05-14T02:59:18.812Z,97635.23
2023-05-14T03:01:47.087Z,97632.95
2023-05-14T03:04:15.902Z,97635.48
2023-05-14T03:06:43.751Z,97637.64
2023-05-14T03:09:11.696Z,97638.13
2023-05-14T03:11:39.833Z,97636.79
2023-05-14T03:14:07.681Z,97634.25
2023-05-14T03:16:35.764Z,97637.77
2023-05-14T03:19:04.034Z,97638.36
2023-05-14T03:21:32.218Z,97635.80
2023-05-14T03:24:00.105Z,97641.52
2023-05-14T03:26:27.965Z,97640.88
2023-05-14T03:28:56.001Z,97638.66
2023-05-14T03:31:24.074Z,97636.26
2023-05-14T03:33:52.108Z,97638.14
2023-05-14T03:36:20.339Z,97636.58
2023-05-14T03:38:49.069Z,97642.11
2023-05-14T03:41:19.148Z,97636.77
2023-05-14T03:43:47.234Z,97639.37
2023-05-14T03:46:15.099Z,97639.88
2023-05-14T03:48:43.089Z,97637.45
2023-05-14T03:51:11.126Z,97636.20
2023-05-14T03:53:39.051Z,97637.91
2023-05-14T03:56:07.785Z,97637.06
2023-05-14T03:58:35.573Z,97638.08
2023-05-14T04:01:03.488Z,97639.13
2023-05-14T04:03:32.638Z,97639.83
2023-05-14T04:06:01.888Z,97638.98
2023-05-14T04:08:29.769Z,97638.93
2023-05-14T04:10:57.737Z,97638.92
2023-05-14T04:13:25.578Z,97640.09
2023-05-14T04:15:53.345Z,97642.81
2023-05-14T04:18:21.576Z,97641.39
2023-05-14T04:20:50.039Z,97642.55
2023-05-14T04:23:17.815Z,97643.73
2023-05-14T04:25:45.705Z,97645.97
2023-05-14T04:28:13.555Z,97640.92
2023-05-14T04:30:41.329Z,97637.07
2023-05-14T04:33:09.405Z,97634.05
2023-05-14T04:35:37.408Z,97633.29
2023-05-14T04:38:06.141Z,97633.37
2023-05-14T04:40:34.185Z,97637.23
2023-05-14T04:43:01.925Z,97635.79
2023-05-14T04:45:30.530Z,97633.10
2023-05-14T04:47:59.258Z,97631.42
2023-05-14T04:50:27.169Z,97627.70
2023-05-14T04:52:55.923Z,97627.73
2023-05-14T04:55:23.801Z,97622.08
2023-05-14T04:57:51.655Z,97615.02
2023-05-14T05:00:22.217Z,97614.49
2023-05-14T05:02:50.989Z,97616.45
2023-05-14T05:05:18.999Z,97611.86
2023-05-14T05:07:46.875Z,97611.64
2023-05-14T05:10:14.638Z,97604.94
2023-05-14T05:12:42.672Z,97604.05
2023-05-14T05:15:10.766Z,97598.55
2023-05-14T05:17:38.687Z,97596.30
2023-05-14T05:20:09.709Z,97596.61
2023-05-14T05:22:37.607Z,97594.17
2023-05-14T05:25:06.539Z,97590.20
2023-05-14T05:27:34.510Z,97589.13
2023-05-14T05:30:04.189Z,97585.63
2023-05-14T05:32:32.145Z,97583.35
2023-05-14T05:35:00.144Z,97579.48
2023-05-14T05:37:27.988Z,97571.35
2023-05-14T05:39:55.844Z,97575.78
2023-05-14T05:42:24.447Z,97572.11
2023-05-14T05:44:52.273Z,97566.02
2023-05-14T05:47:20.099Z,97565.65
2023-05-14T05:49:47.999Z,97565.42
2023-05-14T05:52:16.138Z,97567.76
2023-05-14T05:54:44.095Z,97568.19
2023-05-14T05:57:11.999Z,97570.70
2023-05-14T05:59:40.061Z,97565.67
2023-05-14T06:02:07.986Z,97567.50
2023-05-14T06:04:36.009Z,97562.08
2023-05-14T06:07:04.393Z,97556.90
2023-05-14T06:09:32.463Z,97557.16
2023-05-14T06:12:00.448Z,97557.22
2023-05-14T06:14:28.321Z,97554.56
2023-05-14T06:16:56.327Z,97557.45
2023-05-14T06:19:24.326Z,97562.42
2023-05-14T06:21:52.240Z,97560.64
2023-05-14T06:24:20.723Z,97558.64
2023-05-14T06:26:49.532Z,97556.15
2023-05-14T06:29:17.269Z,97555.89
2023-05-14T06:31:45.646Z,97549.96
2023-05-14T06:34:13.617Z,97548.60
2023-05-14T06:36:41.457Z,97546.66
2023-05-14T06:39:10.112Z,97544.62
2023-05-14T06:41:38.084Z,97535.04
2023-05-14T06:44:05.872Z,97536.46
2023-05-14T06:46:33.621Z,97533.64
2023-05-14T06:49:01.600Z,97540.45
2023-05-14T06:51:29.692Z,97532.15
2023-05-14T06:53:57.595Z,97528.94
2023-05-14T06:56:25.651Z,97527.77
2023-05-14T06:58:53.402Z,97527.64
2023-05-14T07:01:21.237Z,97524.77
2023-05-14T07:03:49.229Z,97522.25
2023-05-14T07:06:17.077Z,97517.06
2023-05-14T07:08:47.793Z,97513.29
2023-05-14T07:11:15.934Z,97512.94
2023-05-14T07:13:43.693Z,97511.76
2023-05-14T07:16:11.669Z,97508.98
2023-05-14T07:18:39.486Z,97510.73
2023-05-14T07:21:07.397Z,97509.73
2023-05-14T07:23:36.691Z,97504.97
2023-05-14T07:26:05.306Z,97503.38
2023-05-14T07:28:33.370Z,97501.27
2023-05-14T07:31:01.155Z,97502.60
2023-05-14T07:33:29.119Z,97497.39
2023-05-14T07:35:56.985Z,97504.15
2023-05-14T07:38:24.835Z,97499.96
2023-05-14T07:40:52.848Z,97495.98
2023-05-14T07:43:20.625Z,97500.61
2023-05-14T07:45:48.594Z,97500.77
2023-05-14T07:48:16.524Z,97501.59
2023-05-14T07:50:44.535Z,97496.40
2023-05-14T07:53:12.467Z,97501.05
2023-05-14T07:55:40.580Z,97499.02
2023-05-14T07:58:08.415Z,97497.77
2023-05-14T08:00:36.172Z,97493.98
2023-05-14T08:03:04.130Z,97485.15
2023-05-14T08:05:33.111Z,97486.30
2023-05-14T08:08:01.568Z,97488.17
2023-05-14T08:10:29.636Z,97490.41
2023-05-14T08:12:57.593Z,97481.58
2023-05-14T08:15:27.717Z,97477.55
2023-05-14T08:17:56.453Z,97469.08
2023-05-14T08:20:24.797Z,97464.50
2023-05-14T08:22:52.907Z,97460.77
2023-05-14T08:25:20.779Z,97457.85
2023-05-14T08:27:48.765Z,97457.48
2023-05-14T08:30:16.809Z,97456.58
2023-05-14T08:32:44.708Z,97456.55
2023-05-14T08:35:12.776Z,97455.50
2023-05-14T08:37:40.754Z,97455.67
2023-05-14T08:40:09.476Z,97451.02
2023-05-14T08:42:41.000Z,97445.77
2023-05-14T08:45:15.310Z,97443.72
2023-05-14T08:47:44.846Z,97435.71
2023-05-14T08:50:12.646Z,97433.96
2023-05-14T08:52:40.576Z,97434.87
2023-05-14T08:55:08.847Z,97432.19
2023-05-14T08:57:36.836Z,97436.38
2023-05-14T09:00:08.426Z,97441.27
2023-05-14T09:02:36.843Z,97436.64
2023-05-14T09:05:05.075Z,97433.77
2023-05-14T09:07:33.543Z,97430.02
2023-05-14T09:10:02.169Z,97425.73
2023-05-14T09:12:30.255Z,97423.48
2023-05-14T09:14:58.095Z,97425.52
2023-05-14T09:17:27.826Z,97422.17
2023-05-14T09:19:56.163Z,97420.48
2023-05-14T09:22:24.144Z,97422.54
2023-05-14T09:25:04.549Z,97417.79
2023-05-14T09:27:33.197Z,97418.56
2023-05-14T09:30:08.430Z,97420.21
2023-05-14T09:32:40.577Z,97411.80
2023-05-14T09:35:12.762Z,97404.08
2023-05-14T09:37:47.907Z,97402.73
2023-05-14T09:40:16.250Z,97395.94
2023-05-14T09:42:44.264Z,97403.93
2023-05-14T09:45:12.957Z,97402.37
2023-05-14T09:47:41.260Z,97400.13
2023-05-14T09:50:09.433Z,97400.94
2023-05-14T09:52:38.510Z,97401.93
2023-05-14T09:55:07.213Z,97397.02
2023-05-14T09:57:35.823Z,97393.45
2023-05-14T10:00:04.072Z,97389.83
2023-05-14T10:02:40.723Z,97388.32
2023-05-14T10:05:09.814Z,97388.00
2023-05-14T10:07:46.788Z,97380.63
2023-05-14T10:10:27.228Z,97376.86
2023-05-14T10:13:04.349Z,97373.81
2023-05-14T10:15:37.053Z,97365.65
2023-05-14T10:18:08.811Z,97361.05
2023-05-14T10:20:38.227Z,97357.16
2023-05-14T10:23:07.689Z,97351.70
2023-05-14T10:25:37.044Z,97347.52
2023-05-14T10:28:06.110Z,97347.89
2023-05-14T10:30:33.947Z,97350.70
2023-05-14T10:33:08.238Z,97349.63
2023-05-14T10:35:56.282Z,97343.54
2023-05-14T10:38:28.628Z,97345.14
2023-05-14T10:40:58.238Z,97337.89
2023-05-14T10:43:28.107Z,97335.06
2023-05-14T10:45:56.206Z,97336.99
2023-05-14T10:48:24.531Z,97332.73
2023-05-14T10:50:53.305Z,97334.19
2023-05-14T10:53:30.290Z,97327.70
2023-05-14T10:55:58.765Z,97327.59
2023-05-14T10:58:26.796Z,97323.86
2023-05-14T11:00:54.603Z,97328.88
2023-05-14T11:03:22.338Z,97326.59
2023-05-14T11:05:50.247Z,97329.07
2023-05-14T11:08:18.916Z,97330.48
2023-05-14T11:10:47.213Z,97330.38
2023-05-14T11:13:16.851Z,97326.46
2023-05-14T11:15:48.190Z,97314.05
2023-05-14T11:18:28.845Z,97311.38
2023-05-14T11:21:00.860Z,97313.59
2023-05-14T11:23:29.011Z,97302.18
2023-05-14T11:25:57.127Z,97302.98
2023-05-14T11:28:26.369Z,97302.80
2023-05-14T11:30:54.422Z,97304.14
2023-05-14T11:33:22.164Z,97300.80
2023-05-14T11:35:50.005Z,97298.54
2023-05-14T11:38:18.915Z,97298.70
2023-05-14T11:40:54.142Z,97295.75
2023-05-14T11:43:26.327Z,97291.80
2023-05-14T11:45:54.796Z,97290.91
2023-05-14T11:48:24.003Z,97287.19
2023-05-14T11:50:52.914Z,97283.59
2023-05-14T11:53:28.261Z,97283.70
2023-05-14T11:55:57.977Z,97280.70
2023-05-14T11:58:26.360Z,97281.73
2023-05-14T12:00:55.846Z,97275.50
2023-05-14T12:03:26.793Z,97272.23
2023-05-14T12:06:06.985Z,97270.98
2023-05-14T12:08:35.025Z,97269.66
2023-05-14T12:11:03.606Z,97269.27
2023-05-14T12:13:31.832Z,97267.17
2023-05-14T12:16:02.335Z,97265.96
2023-05-14T12:18:32.325Z,97263.57
2023-05-14T12:21:04.738Z,97269.38
2023-05-14T12:23:33.115Z,97269.07
2023-05-14T12:26:06.396Z,97273.68
2023-05-14T12:28:37.621Z,97270.99
2023-05-14T12:31:06.674Z,97267.43
2023-05-14T12:33:34.728Z,97268.83
2023-05-14T12:36:14.090Z,97272.27
2023-05-14T12:38:58.292Z,97266.06
2023-05-14T12:41:26.274Z,97264.16
2023-05-14T12:43:54.246Z,97250.77
2023-05-14T12:46:22.341Z,97252.43
2023-05-14T12:48:52.430Z,97254.63
2023-05-14T12:51:21.635Z,97259.42
2023-05-14T12:53:49.564Z,97266.84
2023-05-14T12:56:17.798Z,97263.64
2023-05-14T12:58:47.004Z,97264.92
2023-05-14T13:01:14.885Z,97264.34
2023-05-14T13:03:42.889Z,97268.15
2023-05-14T13:06:10.732Z,97265.69
2023-05-14T13:08:38.761Z,97267.55
2023-05-14T13:11:08.372Z,97261.94
2023-05-14T13:13:36.142Z,97257.42
2023-05-14T13:16:04.080Z,97251.48
2023-05-14T13:18:32.277Z,97245.41
2023-05-14T13:21:00.624Z,97243.66
2023-05-14T13:23:28.485Z,97242.44
2023-05-14T13:25:56.344Z,97241.40
2023-05-14T13:28:24.137Z,97234.80
2023-05-14T13:31:09.462Z,97231.35
2023-05-14T13:33:38.184Z,97226.81
2023-05-14T13:36:06.470Z,97222.64
2023-05-14T13:38:34.707Z,97216.23
2023-05-14T13:41:02.854Z,97213.39
2023-05-14T13:43:31.926Z,97205.42
2023-05-14T13:46:01.210Z,97198.45
2023-05-14T13:48:29.309Z,97193.16
2023-05-14T13:50:57.379Z,97192.38
2023-05-14T13:53:26.296Z,97184.48
2023-05-14T13:55:56.647Z,97182.31
2023-05-14T13:58:25.528Z,97183.98
2023-05-14T14:00:53.573Z,97173.16
2023-05-14T14:03:21.873Z,97169.17
2023-05-14T14:05:50.235Z,97167.52
2023-05-14T14:08:23.994Z,97163.44
2023-05-14T14:10:54.468Z,97162.80
2023-05-14T14:13:23.028Z,97158.84
2023-05-14T14:15:51.279Z,97154.70
2023-05-14T14:18:19.447Z,97154.12
2023-05-14T14:20:47.588Z,97149.94
2023-05-14T14:23:15.518Z,97143.92
2023-05-14T14:25:43.659Z,97143.86
2023-05-14T14:28:11.484Z,97146.73
2023-05-14T14:30:39.473Z,97152.84
2023-05-14T14:33:07.435Z,97152.91
2023-05-14T14:35:35.873Z,97144.27
2023-05-14T14:38:03.677Z,97143.27
2023-05-14T14:40:32.786Z,97145.45
2023-05-14T14:43:02.168Z,97146.90
2023-05-14T14:45:30.281Z,97140.44
2023-05-14T14:48:38.007Z,97138.77
2023-05-14T14:51:07.231Z,97135.70
2023-05-14T14:53:36.212Z,97142.85
2023-05-14T14:56:04.739Z,97147.73
2023-05-14T14:58:32.935Z,97151.34
2023-05-14T15:01:01.543Z,97154.02
2023-05-14T15:03:29.642Z,97148.85
2023-05-14T15:05:57.712Z,97139.30
2023-05-14T15:08:29.483Z,97123.88
2023-05-14T15:10:57.493Z,97109.69
2023-05-14T15:13:25.776Z,97100.02
2023-05-14T15:15:53.680Z,97091.21
2023-05-14T15:18:21.510Z,97089.02
2023-05-14T15:20:49.556Z,97082.97
2023-05-14T15:23:17.639Z,97087.73
2023-05-14T15:25:45.449Z,97098.41
2023-05-14T15:28:13.360Z,97091.52
2023-05-14T15:30:41.352Z,97088.29
2023-05-14T15:33:09.193Z,97087.43
2023-05-14T15:35:37.295Z,97072.50
2023-05-14T15:38:05.179Z,97061.95
2023-05-14T15:40:35.038Z,97055.91
2023-05-14T15:43:03.281Z,97073.51
2023-05-14T15:45:31.290Z,97085.36
2023-05-14T15:47:59.229Z,97084.01
2023-05-14T15:50:27.490Z,97080.52
2023-05-14T15:52:55.282Z,97078.14
2023-05-14T15:55:23.373Z,97074.54
2023-05-14T15:57:51.407Z,97070.39
2023-05-14T16:00:19.671Z,97055.29
2023-05-14T16:02:47.643Z,97055.35
2023-05-14T16:05:15.655Z,97058.34
2023-05-14T16:07:43.722Z,97064.64
2023-05-14T16:10:11.638Z,97061.70
2023-05-14T16:12:39.591Z,97062.61
2023-05-14T16:15:08.039Z,97055.91
2023-05-14T16:17:35.994Z,97059.61
2023-05-14T16:20:07.263Z,97066.05
2023-05-14T16:22:36.248Z,97066.10
2023-05-14T16:25:04.989Z,97067.38
2023-05-14T16:27:33.138Z,97069.69
2023-05-14T16:30:01.017Z,97068.36
2023-05-14T16:32:28.888Z,97075.02
2023-05-14T16:34:56.966Z,97071.44
2023-05-14T16:37:24.775Z,97062.83
2023-05-14T16:39:52.569Z,97064.89
2023-05-14T16:42:20.327Z,97073.16
2023-05-14T16:44:48.186Z,97068.50
2023-05-14T16:47:16.290Z,97065.59
2023-05-14T16:49:44.192Z,97063.93
2023-05-14T16:52:11.938Z,97066.27
2023-05-14T16:54:39.764Z,97058.61
2023-05-14T16:57:07.554Z,97057.07
2023-05-14T16:59:35.532Z,97053.70
2023-05-14T17:02:03.415Z,97054.42
2023-05-14T17:04:33.409Z,97061.13
2023-05-14T17:07:01.736Z,97059.35
2023-05-14T17:09:29.598Z,97062.85
2023-05-14T17:11:57.444Z,97059.67
2023-05-14T17:14:25.436Z,97061.80
2023-05-14T17:16:53.839Z,97060.73
2023-05-14T17:19:21.709Z,97051.88
2023-05-14T17:21:49.683Z,97044.91
2023-05-14T17:24:17.516Z,97030.17
2023-05-14T17:26:45.360Z,97025.39
2023-05-14T17:29:13.202Z,97025.79
2023-05-14T17:31:41.114Z,97015.52
2023-05-14T17:34:08.969Z,97014.02
2023-05-14T17:36:36.797Z,97023.02
2023-05-14T17:39:04.894Z,97025.56
2023-05-14T17:41:32.774Z,97023.13
2023-05-14T17:44:00.625Z,97023.08
2023-05-14T17:46:28.947Z,97030.61
2023-05-14T17:48:58.347Z,97034.77
2023-05-14T17:51:26.352Z,97039.83
2023-05-14T17:53:54.175Z,97046.33
2023-05-14T17:56:22.097Z,97050.84
2023-05-14T17:58:52.283Z,97046.94
2023-05-14T18:01:20.221Z,97048.98
2023-05-14T18:03:48.385Z,97050.65
2023-05-14T18:06:16.898Z,97048.16
2023-05-14T18:08:44.935Z,97052.13
2023-05-14T18:11:12.866Z,97053.20
2023-05-14T18:13:40.964Z,97055.90
2023-05-14T18:16:08.954Z,97055.84
2023-05-14T18:18:36.896Z,97053.13
2023-05-14T18:21:05.041Z,97045.25
2023-05-14T18:23:32.840Z,97044.02
2023-05-14T18:26:01.749Z,97048.30
2023-05-14T18:28:29.692Z,97046.86
2023-05-14T18:30:57.603Z,97049.23
2023-05-14T18:33:25.981Z,97050.06
2023-05-14T18:35:54.064Z,97045.36
2023-05-14T18:38:22.034Z,97035.23
2023-05-14T18:40:50.056Z,97031.38
2023-05-14T18:43:18.756Z,97032.04
2023-05-14T18:45:47.596Z,97035.42
2023-05-14T18:48:16.485Z,97029.93
2023-05-14T18:50:44.245Z,97021.89
2023-05-14T18:53:12.139Z,97027.79
2023-05-14T18:55:40.187Z,97029.42
2023-05-14T18:58:08.440Z,97030.07
2023-05-14T19:00:36.255Z,97036.48
2023-05-14T19:03:04.110Z,97029.71
2023-05-14T19:05:32.409Z,97028.88
2023-05-14T19:08:01.023Z,97029.73
2023-05-14T19:10:29.486Z,97024.55
2023-05-14T19:12:57.973Z,97019.55
2023-05-14T19:15:26.155Z,97019.42
2023-05-14T19:17:54.606Z,97017.02
2023-05-14T19:20:22.589Z,97016.36
2023-05-14T19:22:50.458Z,97015.41
2023-05-14T19:25:18.661Z,97018.07
2023-05-14T19:27:50.955Z,97019.66
2023-05-14T19:30:19.497Z,97014.88
2023-05-14T19:32:47.622Z,97008.31
2023-05-14T19:35:15.890Z,96998.45
2023-05-14T19:37:43.851Z,96990.84
2023-05-14T19:40:11.754Z,96995.11
2023-05-14T19:42:39.697Z,96994.66
2023-05-14T19:45:08.042Z,96997.14
2023-05-14T19:47:35.968Z,96995.23
2023-05-14T19:50:04.233Z,97003.05
2023-05-14T19:52:32.109Z,97008.61
2023-05-14T19:55:00.792Z,97003.99
2023-05-14T19:57:29.367Z,96998.12
2023-05-14T19:59:58.273Z,96994.14
2023-05-14T20:02:26.774Z,96987.77
2023-05-14T20:04:56.838Z,96984.69
2023-05-14T20:07:26.111Z,96982.45
2023-05-14T20:09:53.911Z,96978.89
2023-05-14T20:12:21.783Z,96971.52
2023-05-14T20:14:49.604Z,96973.48
2023-05-14T20:17:17.956Z,96971.88
2023-05-14T20:19:46.581Z,96972.56
2023-05-14T20:22:15.143Z,96969.89
2023-05-14T20:24:44.024Z,96963.11
2023-05-14T20:27:12.143Z,96953.55
2023-05-14T20:29:39.999Z,96953.86
2023-05-14T20:32:08.495Z,96954.34
2023-05-14T20:34:36.332Z,96953.92
2023-05-14T20:37:05.479Z,96964.71
2023-05-14T20:39:33.446Z,96961.27
2023-05-14T20:42:01.318Z,96953.64
2023-05-14T20:44:29.147Z,96947.39
2023-05-14T20:46:56.943Z,96938.20
2023-05-14T20:49:24.843Z,96943.95
2023-05-14T20:51:52.729Z,96941.87
2023-05-14T20:54:20.450Z,96940.33
2023-05-14T20:56:48.403Z,96937.75
2023-05-14T20:59:16.245Z,96932.73
2023-05-14T21:01:44.106Z,96931.16
2023-05-14T21:04:12.208Z,96932.86
2023-05-14T21:06:40.346Z,96945.57
2023-05-14T21:09:08.280Z,96955.78
2023-05-14T21:11:36.139Z,96953.24
2023-05-14T21:14:04.159Z,96948.55
2023-05-14T21:16:32.713Z,96936.64
2023-05-14T21:19:01.094Z,96927.30
2023-05-14T21:21:29.079Z,96926.33
2023-05-14T21:23:57.061Z,96924.10
2023-05-14T21:26:25.962Z,96930.69
2023-05-14T21:28:53.863Z,96944.28
2023-05-14T21:31:21.776Z,96945.07
2023-05-14T21:33:49.807Z,96940.11
2023-05-14T21:36:17.703Z,96948.50
2023-05-14T21:38:46.051Z,96954.98
2023-05-14T21:41:13.932Z,96949.48
2023-05-14T21:43:42.056Z,96942.73
2023-05-14T21:46:10.339Z,96931.05
2023-05-14T21:48:38.225Z,96932.34
2023-05-14T21:51:06.655Z,96939.32
2023-05-14T21:53:35.028Z,96931.63
2023-05-14T21:56:02.903Z,96919.52
2023-05-14T21:58:30.696Z,96919.69
2023-05-14T22:00:58.767Z,96924.34
2023-05-14T22:03:26.658Z,96922.24
2023-05-14T22:05:54.529Z,96923.52
2023-05-14T22:08:22.338Z,96925.02
2023-05-14T22:10:50.384Z,96923.77
2023-05-14T22:13:18.232Z,96922.32
2023-05-14T22:15:46.107Z,96920.86
2023-05-14T22:18:15.691Z,96925.85
2023-05-14T22:20:44.290Z,96928.89
2023-05-14T22:23:12.050Z,96922.73
2023-05-14T22:25:39.864Z,96923.13
2023-05-14T22:28:07.673Z,96924.20
2023-05-14T22:30:35.607Z,96923.01
2023-05-14T22:33:03.581Z,96917.39
2023-05-14T22:35:31.616Z,96917.65
2023-05-14T22:37:59.405Z,96907.99
2023-05-14T22:40:27.404Z,96900.70
2023-05-14T22:42:55.375Z,96892.36
2023-05-14T22:45:23.436Z,96897.91
2023-05-14T22:47:51.625Z,96890.92
2023-05-14T22:50:19.639Z,96886.38
2023-05-14T22:52:47.520Z,96882.54
2023-05-14T22:55:15.613Z,96877.52
2023-05-14T22:57:43.402Z,96873.33
2023-05-14T23:00:11.966Z,96863.41
2023-05-14T23:02:39.917Z,96864.64
2023-05-14T23:05:08.519Z,96856.64
2023-05-14T23:07:36.588Z,96852.44
2023-05-14T23:10:04.878Z,96846.38
2023-05-14T23:12:32.788Z,96841.37
2023-05-14T23:15:00.684Z,96841.52
2023-05-14T23:17:28.872Z,96838.07
2023-05-14T23:19:57.334Z,96842.44
2023-05-14T23:22:25.490Z,96842.98
2023-05-14T23:24:53.216Z,96847.58
2023-05-14T23:27:20.996Z,96849.86
2023-05-14T23:29:48.778Z,96852.83
2023-05-14T23:32:16.707Z,96850.45
2023-05-14T23:34:44.630Z,96843.77
2023-05-14T23:37:12.498Z,96844.98
2023-05-14T23:39:40.352Z,96846.25
2023-05-14T23:42:08.347Z,96838.11
2023-05-14T23:44:36.129Z,96835.59
2023-05-14T23:47:04.363Z,96831.40
2023-05-14T23:49:32.166Z,96831.14
2023-05-14T23:52:00.041Z,96830.58
2023-05-14T23:54:28.014Z,96832.35
2023-05-14T23:56:55.929Z,96839.86
2023-05-14T23:59:23.946Z,96846.06
